ニース/コート・ダジュール の空港の天気 - METARとTAF

コート・ダジュール空港(ニース) ( LFMN / NCE ) - フランス ニース
飛行場実況気象(Metar)
観測時間10/20 19:00 CEST (10/20 17:00 UTC)
風向・風速南西 3m/s
視程10km以上
天気現象
なし
気温21℃
湿度69%
気圧1021hPa
METARLFMN 201700Z 23005KT CAVOK 21/15 Q1021 NOSIG
過去の天気等 Google飛行場航空写真 Wunderground天気予報

過去48時間のMETAR

飛行場予報(TAF)
発表時間: 10/20 16:00 CEST (10/20 14:00 UTC)
予報対象時間: 20日17時 CEST ~ 21日23時 CEST
風向・風速南 3m/s
視程10km以上
少しの雲 雲底高度 910m
20日20時 CEST ~ 20日23時 CEST に徐々に
風向・風速北北西 5m/s
21日11時 CEST ~ 21日13時 CEST に徐々に
風向・風速南 5m/s
21日17時 CEST ~ 21日20時 CEST に徐々に
風向・風速東 8m/s
TAF LFMN 201400Z 2015/2121 18006KT 9999 FEW030
BECMG 2018/2021 34010KT
BECMG 2109/2111 18010KT
BECMG 2115/2118 09015KT